createdAt,value
2019-05-22T00:00:49.468Z,14.90
2019-05-22T00:03:22.659Z,14.90
2019-05-22T00:05:54.830Z,14.90
2019-05-22T00:08:25.465Z,15.00
2019-05-22T00:10:55.364Z,15.00
2019-05-22T00:13:25.800Z,15.10
2019-05-22T00:15:57.112Z,15.00
2019-05-22T00:18:28.497Z,15.10
2019-05-22T00:20:58.140Z,15.10
2019-05-22T00:23:28.736Z,15.00
2019-05-22T00:25:58.448Z,15.10
2019-05-22T00:28:28.368Z,15.10
2019-05-22T00:30:59.304Z,15.10
2019-05-22T00:33:28.295Z,15.00
2019-05-22T00:36:00.155Z,15.00
2019-05-22T00:38:32.021Z,15.00
2019-05-22T00:41:05.307Z,14.90
2019-05-22T00:43:39.597Z,15.00
2019-05-22T00:46:10.087Z,14.90
2019-05-22T00:48:41.996Z,15.00
2019-05-22T00:51:22.690Z,15.00
2019-05-22T00:54:10.005Z,15.00
2019-05-22T00:56:41.457Z,15.00
2019-05-22T00:59:14.136Z,15.10
2019-05-22T01:01:57.976Z,15.00
2019-05-22T01:04:32.500Z,15.10
2019-05-22T01:07:05.384Z,15.10
2019-05-22T01:09:44.626Z,15.10
2019-05-22T01:12:19.853Z,15.10
2019-05-22T01:14:50.741Z,15.10
2019-05-22T01:17:22.355Z,15.00
2019-05-22T01:19:54.622Z,14.90
2019-05-22T01:22:26.583Z,14.80
2019-05-22T01:24:58.267Z,14.80
2019-05-22T01:27:29.484Z,14.80
2019-05-22T01:29:59.894Z,14.70
2019-05-22T01:32:49.742Z,14.70
2019-05-22T01:35:20.935Z,14.60
2019-05-22T01:38:10.819Z,14.70
2019-05-22T01:40:44.183Z,14.60
2019-05-22T01:43:16.383Z,14.60
2019-05-22T01:45:53.675Z,14.60
2019-05-22T01:48:27.079Z,14.60
2019-05-22T01:50:58.118Z,14.60
2019-05-22T01:53:31.709Z,14.60
2019-05-22T01:56:02.286Z,14.60
2019-05-22T01:58:32.776Z,14.60
2019-05-22T02:01:03.205Z,14.60
2019-05-22T02:03:35.670Z,14.60
2019-05-22T02:06:07.759Z,14.60
2019-05-22T02:08:43.898Z,14.60
2019-05-22T02:11:16.459Z,14.50
2019-05-22T02:13:49.855Z,14.50
2019-05-22T02:16:20.219Z,14.40
2019-05-22T02:18:50.853Z,14.50
2019-05-22T02:21:22.504Z,14.40
2019-05-22T02:23:52.089Z,14.40
2019-05-22T02:26:20.979Z,14.50
2019-05-22T02:28:52.305Z,14.60
2019-05-22T02:31:23.616Z,14.70
2019-05-22T02:33:57.892Z,14.80
2019-05-22T02:36:28.320Z,14.80
2019-05-22T02:38:58.952Z,14.80
2019-05-22T02:41:32.554Z,14.80
2019-05-22T02:44:02.058Z,14.90
2019-05-22T02:46:32.585Z,14.80
2019-05-22T02:49:03.123Z,14.80
2019-05-22T02:51:33.852Z,14.80
2019-05-22T02:54:05.738Z,14.90
2019-05-22T02:56:36.284Z,14.90
2019-05-22T02:59:09.955Z,14.90
2019-05-22T03:01:40.470Z,14.90
2019-05-22T03:04:10.590Z,14.90
2019-05-22T03:06:41.232Z,14.90
2019-05-22T03:09:23.928Z,14.90
2019-05-22T03:12:00.193Z,15.00
2019-05-22T03:14:32.266Z,15.00
2019-05-22T03:17:06.276Z,15.00
2019-05-22T03:19:45.192Z,15.00
2019-05-22T03:22:36.734Z,15.00
2019-05-22T03:25:09.056Z,15.00
2019-05-22T03:27:44.336Z,15.10
2019-05-22T03:30:33.026Z,15.00
2019-05-22T03:33:05.099Z,15.00
2019-05-22T03:35:40.225Z,15.10
2019-05-22T03:38:11.248Z,15.10
2019-05-22T03:40:40.739Z,15.10
2019-05-22T03:43:23.633Z,15.00
2019-05-22T03:45:55.631Z,15.00
2019-05-22T03:48:26.558Z,15.00
2019-05-22T03:51:00.366Z,15.00
2019-05-22T03:53:33.760Z,15.00
2019-05-22T03:56:08.210Z,15.10
2019-05-22T03:58:38.446Z,15.20
2019-05-22T04:01:09.585Z,15.30
2019-05-22T04:03:39.464Z,15.30
2019-05-22T04:06:10.073Z,15.20
2019-05-22T04:08:40.017Z,15.10
2019-05-22T04:11:13.046Z,15.00
2019-05-22T04:13:43.629Z,15.00
2019-05-22T04:16:14.046Z,14.90
2019-05-22T04:18:44.493Z,14.90
2019-05-22T04:21:15.628Z,15.00
2019-05-22T04:23:44.722Z,15.00
2019-05-22T04:26:15.969Z,15.00
2019-05-22T04:28:52.093Z,15.00
2019-05-22T04:31:23.988Z,15.00
2019-05-22T04:33:54.723Z,15.00
2019-05-22T04:36:25.150Z,14.90
2019-05-22T04:38:56.108Z,14.90
2019-05-22T04:41:26.945Z,14.80
2019-05-22T04:43:55.918Z,14.80
2019-05-22T04:46:24.809Z,14.70
2019-05-22T04:48:55.604Z,14.70
2019-05-22T04:51:28.578Z,14.60
2019-05-22T04:53:58.688Z,14.50
2019-05-22T04:56:29.619Z,14.50
2019-05-22T04:59:02.121Z,14.50
2019-05-22T05:01:33.619Z,14.50
2019-05-22T05:04:03.228Z,14.40
2019-05-22T05:06:34.981Z,14.40
2019-05-22T05:09:07.559Z,14.50
2019-05-22T05:11:38.388Z,14.30
2019-05-22T05:14:08.001Z,14.30
2019-05-22T05:16:37.822Z,14.30
2019-05-22T05:19:07.593Z,14.30
2019-05-22T05:21:38.361Z,14.40
2019-05-22T05:24:09.346Z,14.50
2019-05-22T05:26:40.672Z,14.50
2019-05-22T05:29:12.510Z,14.60
2019-05-22T05:31:42.394Z,14.70
2019-05-22T05:34:20.121Z,14.70
2019-05-22T05:36:50.565Z,14.70
2019-05-22T05:39:42.106Z,14.70
2019-05-22T05:42:11.104Z,14.80
2019-05-22T05:44:39.994Z,14.90
2019-05-22T05:47:09.469Z,15.00
2019-05-22T05:49:38.284Z,15.10
2019-05-22T05:52:10.243Z,15.10
2019-05-22T05:54:41.658Z,15.20
2019-05-22T05:57:37.784Z,15.30
2019-05-22T06:00:19.827Z,15.30
2019-05-22T06:02:56.379Z,15.40
2019-05-22T06:05:23.775Z,15.50
2019-05-22T06:07:52.616Z,15.60
2019-05-22T06:10:30.428Z,15.60
2019-05-22T06:13:01.034Z,15.70
2019-05-22T06:15:56.140Z,15.70
2019-05-22T06:18:34.764Z,15.70
2019-05-22T06:21:06.310Z,15.70
2019-05-22T06:23:41.142Z,15.70
2019-05-22T06:26:13.015Z,15.80
2019-05-22T06:28:44.556Z,15.80
2019-05-22T06:31:17.788Z,15.80
2019-05-22T06:33:46.742Z,15.80
2019-05-22T06:36:18.571Z,15.70
2019-05-22T06:38:51.920Z,15.70
2019-05-22T06:41:23.232Z,15.60
2019-05-22T06:44:11.795Z,15.60
2019-05-22T06:46:46.488Z,15.50
2019-05-22T06:49:33.542Z,15.50
2019-05-22T06:52:05.086Z,15.50
2019-05-22T06:54:34.802Z,15.40
2019-05-22T06:57:06.462Z,15.40
2019-05-22T06:59:35.350Z,15.30
2019-05-22T07:02:06.496Z,15.30
2019-05-22T07:04:37.020Z,15.30
2019-05-22T07:07:11.547Z,15.30
2019-05-22T07:09:40.611Z,15.30
2019-05-22T07:12:10.857Z,15.30
2019-05-22T07:14:44.265Z,15.30
2019-05-22T07:17:15.635Z,15.30
2019-05-22T07:19:45.623Z,15.30
2019-05-22T07:22:14.615Z,15.30
2019-05-22T07:24:44.536Z,15.30
2019-05-22T07:27:26.992Z,15.30
2019-05-22T07:29:56.444Z,15.30
2019-05-22T07:32:30.923Z,15.30
2019-05-22T07:35:00.430Z,15.40
2019-05-22T07:37:31.717Z,15.40
2019-05-22T07:40:01.455Z,15.50
2019-05-22T07:42:30.525Z,15.50
2019-05-22T07:44:59.518Z,15.60
2019-05-22T07:47:28.414Z,15.70
2019-05-22T07:49:57.402Z,15.80
2019-05-22T07:52:27.419Z,15.90
2019-05-22T07:55:15.976Z,16.00
2019-05-22T07:57:47.829Z,16.10
2019-05-22T08:00:17.969Z,16.20
2019-05-22T08:02:52.022Z,16.30
2019-05-22T08:05:22.494Z,16.40
2019-05-22T08:07:53.585Z,16.40
2019-05-22T08:10:24.983Z,16.40
2019-05-22T08:12:54.315Z,16.40
2019-05-22T08:15:26.040Z,16.40
2019-05-22T08:17:55.648Z,16.30
2019-05-22T08:20:24.539Z,16.30
2019-05-22T08:22:57.023Z,16.30
2019-05-22T08:25:26.825Z,16.30
2019-05-22T08:27:57.712Z,16.50
2019-05-22T08:30:27.864Z,16.60
2019-05-22T08:32:59.846Z,16.70
2019-05-22T08:35:31.325Z,16.90
2019-05-22T08:38:01.802Z,17.20
2019-05-22T08:40:33.078Z,17.50
2019-05-22T08:43:02.126Z,17.90
2019-05-22T08:45:33.685Z,18.10
2019-05-22T08:48:03.841Z,18.30
2019-05-22T08:50:34.987Z,18.40
2019-05-22T08:53:06.445Z,18.50
2019-05-22T08:55:36.451Z,18.50
2019-05-22T08:58:08.734Z,18.30
2019-05-22T09:00:39.256Z,18.10
2019-05-22T09:03:10.395Z,17.90
2019-05-22T09:05:41.331Z,17.70
2019-05-22T09:08:10.226Z,17.50
2019-05-22T09:10:39.116Z,17.40
2019-05-22T09:13:08.829Z,17.30
2019-05-22T09:15:39.354Z,17.20
2019-05-22T09:18:08.914Z,17.10
2019-05-22T09:20:48.631Z,17.10
2019-05-22T09:23:12.094Z,17.10
2019-05-22T09:25:42.552Z,17.10
2019-05-22T09:28:12.821Z,17.00
2019-05-22T09:30:41.813Z,16.90
2019-05-22T09:33:12.223Z,16.90
2019-05-22T09:35:41.312Z,16.80
2019-05-22T09:38:12.052Z,16.70
2019-05-22T09:40:42.491Z,16.60
2019-05-22T09:43:12.068Z,16.50
2019-05-22T09:45:40.904Z,16.40
2019-05-22T09:48:12.123Z,16.30
2019-05-22T09:50:43.167Z,16.10
2019-05-22T09:53:13.150Z,16.00
2019-05-22T09:55:47.026Z,15.90
2019-05-22T09:58:15.492Z,15.90
2019-05-22T10:00:44.375Z,15.90
2019-05-22T10:03:14.790Z,15.90
2019-05-22T10:05:44.608Z,16.00
2019-05-22T10:08:15.146Z,15.90
2019-05-22T10:10:45.729Z,16.00
2019-05-22T10:13:16.133Z,16.00
2019-05-22T10:15:46.014Z,16.00
2019-05-22T10:18:16.341Z,16.10
2019-05-22T10:20:45.231Z,16.20
2019-05-22T10:23:16.476Z,16.20
2019-05-22T10:25:46.077Z,16.30
2019-05-22T10:28:15.711Z,16.30
2019-05-22T10:30:45.402Z,16.40
2019-05-22T10:33:16.341Z,16.50
2019-05-22T10:35:46.892Z,16.70
2019-05-22T10:38:15.871Z,16.80
2019-05-22T10:40:44.744Z,16.80
2019-05-22T10:43:13.644Z,17.00
2019-05-22T10:45:42.738Z,17.00
2019-05-22T10:48:12.362Z,17.00
2019-05-22T10:50:42.796Z,17.10
2019-05-22T10:53:13.285Z,17.10
2019-05-22T10:55:43.413Z,17.20
2019-05-22T10:58:13.393Z,17.20
2019-05-22T11:00:43.537Z,17.20
2019-05-22T11:03:14.981Z,17.20
2019-05-22T11:05:46.588Z,17.30
2019-05-22T11:08:17.724Z,17.30
2019-05-22T11:10:48.240Z,17.40
2019-05-22T11:13:18.355Z,17.40
2019-05-22T11:15:47.453Z,17.40
2019-05-22T11:18:18.253Z,17.40
2019-05-22T11:20:49.512Z,17.30
2019-05-22T11:23:18.423Z,17.20
2019-05-22T11:25:47.519Z,17.10
2019-05-22T11:28:16.412Z,17.00
2019-05-22T11:30:47.683Z,17.10
2019-05-22T11:33:17.966Z,17.10
2019-05-22T11:35:49.415Z,17.20
2019-05-22T11:38:18.960Z,17.10
2019-05-22T11:40:47.929Z,17.00
2019-05-22T11:43:18.459Z,17.00
2019-05-22T11:45:47.968Z,17.00
2019-05-22T11:48:17.923Z,17.00
2019-05-22T11:50:46.974Z,17.00
2019-05-22T11:53:16.787Z,17.00
2019-05-22T11:55:46.525Z,16.90
2019-05-22T11:58:17.054Z,16.90
2019-05-22T12:00:47.542Z,16.90
2019-05-22T12:03:18.937Z,17.00
2019-05-22T12:05:48.670Z,17.00
2019-05-22T12:08:19.318Z,17.00
2019-05-22T12:10:49.314Z,17.00
2019-05-22T12:13:18.256Z,17.00
2019-05-22T12:15:47.149Z,17.10
2019-05-22T12:18:16.755Z,17.20
2019-05-22T12:20:46.571Z,17.20
2019-05-22T12:23:15.457Z,17.30
2019-05-22T12:25:45.166Z,17.40
2019-05-22T12:28:15.695Z,17.40
2019-05-22T12:30:46.497Z,17.50
2019-05-22T12:33:15.440Z,17.40
2019-05-22T12:35:45.952Z,17.50
2019-05-22T12:38:17.226Z,17.50
2019-05-22T12:40:47.727Z,17.40
2019-05-22T12:43:18.135Z,17.40
2019-05-22T12:45:48.545Z,17.40
2019-05-22T12:48:19.332Z,17.40
2019-05-22T12:50:50.300Z,17.50
2019-05-22T12:53:21.607Z,17.50
2019-05-22T12:55:50.493Z,17.60
2019-05-22T12:58:20.817Z,17.60
2019-05-22T13:00:50.762Z,17.70
2019-05-22T13:03:20.990Z,17.60
2019-05-22T13:05:52.712Z,17.60
2019-05-22T13:08:23.241Z,17.70
2019-05-22T13:10:54.628Z,17.70
2019-05-22T13:13:26.008Z,17.70
2019-05-22T13:15:56.472Z,17.80
2019-05-22T13:18:28.055Z,17.80
2019-05-22T13:20:59.923Z,17.90
2019-05-22T13:23:33.277Z,17.90
2019-05-22T13:26:04.477Z,18.00
2019-05-22T13:28:36.114Z,18.00
2019-05-22T13:31:07.448Z,18.00
2019-05-22T13:33:39.833Z,18.00
2019-05-22T13:36:11.162Z,18.00
2019-05-22T13:38:42.406Z,17.90
2019-05-22T13:41:13.696Z,17.80
2019-05-22T13:43:43.936Z,17.60
2019-05-22T13:46:14.472Z,17.50
2019-05-22T13:48:44.359Z,17.40
2019-05-22T13:51:15.965Z,17.30
2019-05-22T13:53:48.760Z,17.20
2019-05-22T13:56:19.908Z,17.10
2019-05-22T13:58:49.760Z,17.10
2019-05-22T14:01:20.136Z,16.90
2019-05-22T14:03:50.592Z,16.90
2019-05-22T14:06:20.341Z,16.90
2019-05-22T14:08:49.346Z,16.80
2019-05-22T14:11:20.195Z,16.80
2019-05-22T14:13:50.294Z,16.80
2019-05-22T14:16:20.739Z,16.90
2019-05-22T14:18:50.385Z,17.00
2019-05-22T14:21:21.365Z,17.00
2019-05-22T14:23:51.805Z,17.00
2019-05-22T14:26:21.526Z,16.90
2019-05-22T14:28:51.339Z,16.90
2019-05-22T14:31:21.153Z,16.90
2019-05-22T14:33:51.512Z,16.80
2019-05-22T14:36:21.389Z,16.80
2019-05-22T14:38:52.336Z,16.80
2019-05-22T14:41:21.938Z,16.80
2019-05-22T14:43:50.929Z,16.80
2019-05-22T14:46:20.756Z,16.80
2019-05-22T14:48:50.761Z,16.80
2019-05-22T14:51:22.106Z,16.70
2019-05-22T14:53:53.317Z,16.80
2019-05-22T14:56:25.152Z,16.80
2019-05-22T14:58:55.435Z,16.90
2019-05-22T15:01:27.637Z,16.90
2019-05-22T15:03:56.740Z,16.90
2019-05-22T15:06:27.633Z,16.90
2019-05-22T15:08:57.988Z,16.90
2019-05-22T15:11:28.085Z,16.90
2019-05-22T15:13:58.422Z,16.80
2019-05-22T15:16:28.102Z,16.80
2019-05-22T15:18:57.007Z,16.60
2019-05-22T15:21:27.498Z,16.60
2019-05-22T15:23:58.177Z,16.50
2019-05-22T15:26:29.503Z,16.50
2019-05-22T15:28:59.145Z,16.50
2019-05-22T15:31:30.320Z,16.50
2019-05-22T15:34:00.796Z,16.50
2019-05-22T15:36:31.595Z,16.50
2019-05-22T15:39:02.338Z,16.50
2019-05-22T15:41:52.804Z,16.40
2019-05-22T15:44:24.254Z,16.50
2019-05-22T15:46:54.689Z,16.40
2019-05-22T15:49:25.798Z,16.40
2019-05-22T15:51:55.699Z,16.40
2019-05-22T15:54:26.620Z,16.40
2019-05-22T15:56:57.373Z,16.40
2019-05-22T15:59:27.798Z,16.40
2019-05-22T16:02:01.039Z,16.40
2019-05-22T16:04:32.308Z,16.40
2019-05-22T16:07:05.118Z,16.40
2019-05-22T16:09:36.570Z,16.40
2019-05-22T16:12:06.546Z,16.30
2019-05-22T16:14:37.658Z,16.30
2019-05-22T16:17:08.389Z,16.30
2019-05-22T16:19:38.070Z,16.30
2019-05-22T16:22:11.641Z,16.00
2019-05-22T16:24:43.077Z,16.00
2019-05-22T16:27:16.008Z,15.90
2019-05-22T16:29:47.243Z,15.90
2019-05-22T16:32:21.266Z,16.00
2019-05-22T16:34:50.361Z,16.00
2019-05-22T16:37:21.089Z,15.90
2019-05-22T16:39:51.679Z,15.80
2019-05-22T16:42:23.074Z,15.80
2019-05-22T16:45:12.968Z,15.80
2019-05-22T16:47:43.396Z,15.70
2019-05-22T16:50:13.553Z,15.70
2019-05-22T16:52:46.016Z,15.60
2019-05-22T16:55:17.245Z,15.60
2019-05-22T16:57:49.101Z,15.60
2019-05-22T17:00:19.000Z,15.60
2019-05-22T17:02:50.643Z,15.60
2019-05-22T17:05:22.099Z,15.60
2019-05-22T17:07:53.642Z,15.60
2019-05-22T17:10:24.839Z,15.50
2019-05-22T17:12:56.189Z,15.50
2019-05-22T17:15:26.532Z,15.50
2019-05-22T17:17:56.177Z,15.40
2019-05-22T17:20:28.294Z,15.40
2019-05-22T17:22:58.562Z,15.40
2019-05-22T17:25:29.510Z,15.30
2019-05-22T17:27:59.216Z,15.20
2019-05-22T17:30:30.453Z,15.20
2019-05-22T17:33:01.743Z,15.10
2019-05-22T17:35:32.453Z,15.20
2019-05-22T17:38:03.495Z,15.20
2019-05-22T17:40:32.894Z,15.20
2019-05-22T17:43:05.984Z,15.20
2019-05-22T17:45:37.336Z,15.30
2019-05-22T17:48:09.085Z,15.30
2019-05-22T17:50:40.030Z,15.30
2019-05-22T17:53:11.481Z,15.30
2019-05-22T17:55:43.046Z,15.30
2019-05-22T17:58:13.330Z,15.20
2019-05-22T18:00:49.850Z,15.10
2019-05-22T18:03:19.022Z,15.10
2019-05-22T18:05:49.072Z,15.20
2019-05-22T18:08:19.262Z,15.10
2019-05-22T18:10:50.939Z,15.10
2019-05-22T18:13:21.441Z,15.10
2019-05-22T18:15:51.815Z,15.00
2019-05-22T18:18:20.768Z,15.00
2019-05-22T18:20:51.398Z,15.10
2019-05-22T18:23:20.290Z,15.10
2019-05-22T18:25:49.280Z,15.20
2019-05-22T18:28:19.867Z,15.10
2019-05-22T18:30:48.803Z,15.10
2019-05-22T18:33:18.517Z,15.10
2019-05-22T18:35:48.944Z,15.00
2019-05-22T18:38:17.935Z,15.00
2019-05-22T18:40:47.028Z,15.00
2019-05-22T18:43:18.705Z,15.10
2019-05-22T18:45:46.448Z,15.10
2019-05-22T18:48:17.415Z,15.00
2019-05-22T18:50:47.081Z,15.00
2019-05-22T18:53:16.194Z,15.00
2019-05-22T18:55:45.040Z,15.00
2019-05-22T18:58:14.140Z,15.00
2019-05-22T19:00:43.392Z,15.00
2019-05-22T19:03:12.459Z,15.00
2019-05-22T19:05:41.853Z,14.90
2019-05-22T19:08:10.805Z,15.00
2019-05-22T19:10:40.092Z,15.00
2019-05-22T19:13:09.523Z,14.90
2019-05-22T19:15:39.036Z,14.90
2019-05-22T19:18:08.119Z,15.00
2019-05-22T19:20:37.101Z,15.00
2019-05-22T19:23:06.144Z,15.00
2019-05-22T19:25:35.542Z,15.00
2019-05-22T19:28:04.961Z,15.00
2019-05-22T19:30:33.886Z,15.00
2019-05-22T19:33:03.135Z,14.90
2019-05-22T19:35:32.129Z,15.00
2019-05-22T19:38:01.588Z,15.00
2019-05-22T19:40:30.733Z,15.10
2019-05-22T19:43:00.023Z,15.00
2019-05-22T19:45:30.871Z,15.00
2019-05-22T19:48:00.441Z,15.00
2019-05-22T19:50:29.577Z,15.10
2019-05-22T19:53:15.799Z,15.00
2019-05-22T19:55:30.115Z,15.00
2019-05-22T19:58:00.004Z,15.10
2019-05-22T20:00:30.552Z,15.10
2019-05-22T20:02:59.599Z,15.10
2019-05-22T20:05:29.028Z,15.10
2019-05-22T20:07:57.972Z,15.00
2019-05-22T20:10:27.223Z,15.10
2019-05-22T20:12:56.558Z,15.10
2019-05-22T20:15:26.163Z,15.10
2019-05-22T20:17:55.577Z,15.10
2019-05-22T20:20:25.956Z,15.10
2019-05-22T20:22:55.288Z,15.00
2019-05-22T20:25:24.642Z,15.00
2019-05-22T20:27:54.537Z,15.00
2019-05-22T20:30:24.724Z,15.00
2019-05-22T20:32:53.699Z,15.00
2019-05-22T20:35:22.564Z,15.00
2019-05-22T20:37:51.734Z,15.00
2019-05-22T20:40:22.236Z,15.00
2019-05-22T20:42:51.792Z,15.00
2019-05-22T20:45:23.732Z,14.90
2019-05-22T20:48:05.971Z,14.90
2019-05-22T20:50:36.363Z,14.90
2019-05-22T20:53:06.362Z,14.90
2019-05-22T20:55:36.074Z,14.80
2019-05-22T20:58:06.263Z,14.90
2019-05-22T21:00:37.445Z,14.80
2019-05-22T21:03:10.227Z,14.80
2019-05-22T21:05:41.992Z,14.90
2019-05-22T21:08:16.407Z,14.90
2019-05-22T21:10:48.056Z,14.90
2019-05-22T21:13:19.188Z,14.90
2019-05-22T21:15:50.552Z,15.00
2019-05-22T21:18:21.697Z,15.00
2019-05-22T21:20:55.209Z,15.00
2019-05-22T21:23:25.007Z,15.00
2019-05-22T21:25:55.794Z,15.00
2019-05-22T21:28:26.432Z,15.10
2019-05-22T21:30:55.367Z,15.10
2019-05-22T21:33:25.776Z,15.10
2019-05-22T21:35:56.097Z,15.10
2019-05-22T21:38:27.163Z,15.20
2019-05-22T21:40:58.815Z,15.20
2019-05-22T21:43:30.658Z,15.20
2019-05-22T21:45:59.976Z,15.20
2019-05-22T21:48:30.250Z,15.20
2019-05-22T21:50:59.192Z,15.20
2019-05-22T21:53:28.492Z,15.20
2019-05-22T21:56:04.699Z,15.10
2019-05-22T21:58:31.067Z,15.10
2019-05-22T22:01:03.049Z,15.10
2019-05-22T22:03:37.985Z,15.10
2019-05-22T22:06:08.454Z,15.10
2019-05-22T22:08:37.404Z,15.10
2019-05-22T22:11:08.932Z,15.10
2019-05-22T22:13:39.382Z,15.10
2019-05-22T22:16:10.097Z,15.00
2019-05-22T22:18:40.647Z,15.10
2019-05-22T22:21:09.644Z,15.00
2019-05-22T22:23:44.158Z,15.00
2019-05-22T22:26:25.606Z,15.00
2019-05-22T22:28:46.477Z,15.00
2019-05-22T22:31:17.079Z,15.00
2019-05-22T22:33:48.947Z,15.00
2019-05-22T22:36:19.879Z,14.90
2019-05-22T22:38:51.328Z,14.90
2019-05-22T22:41:23.020Z,14.90
2019-05-22T22:43:52.880Z,14.80
2019-05-22T22:46:45.652Z,14.80
2019-05-22T22:49:17.408Z,14.80
2019-05-22T22:51:49.182Z,14.90
2019-05-22T22:54:19.858Z,14.90
2019-05-22T22:56:49.708Z,14.90
2019-05-22T22:59:19.225Z,14.90
2019-05-22T23:01:52.202Z,14.90
2019-05-22T23:04:25.285Z,14.90
2019-05-22T23:06:59.054Z,15.00
2019-05-22T23:09:27.899Z,15.00
2019-05-22T23:11:58.213Z,15.00
2019-05-22T23:14:27.845Z,15.00
2019-05-22T23:16:57.235Z,15.00
2019-05-22T23:19:38.725Z,15.00
2019-05-22T23:22:08.623Z,15.00
2019-05-22T23:24:40.885Z,15.00
2019-05-22T23:27:12.942Z,15.00
2019-05-22T23:29:43.079Z,14.90
2019-05-22T23:32:13.609Z,14.90
2019-05-22T23:34:44.207Z,14.90
2019-05-22T23:37:15.043Z,14.90
2019-05-22T23:39:46.419Z,14.90
2019-05-22T23:42:19.821Z,14.90
2019-05-22T23:44:49.839Z,14.90
2019-05-22T23:47:20.395Z,14.90
2019-05-22T23:49:51.368Z,14.90
2019-05-22T23:52:21.528Z,14.90
2019-05-22T23:54:52.872Z,14.90
2019-05-22T23:57:22.894Z,14.90
2019-05-22T23:59:54.661Z,14.80
